Stolt Spray — ZCSQ9 — position and weather

sailwx.info

Track history (hours):
 
Tides and Currents Weather Stations Pressure Air Temp Water Temp Dewpoint Dewpoint Depression Visibility Wind Speed Wind Dir Waves Ship Positions

Stolt Spray

Last reported at 2017-May-25 04:56 UTC. Time now 2017-May-28 12:34 UTC.
Position N 49°24' W 005°38'.

Length 163 m; draft 9.1 m.

Type: Ship (hazmat cat B). MMSI: 319591000.

Date/timePositionNaut miles runAvg speedWind from/ knotsBaromVisibWave heightAir tempDewpointWater temp
2017-May-25 04:56N 49°24' W 005°38'1213.9
2017-May-25 04:02N 49°27' W 005°20'012.9
2017-May-25 04:01N 49°27' W 005°19'912.6
2017-May-25 03:17N 49°29' W 005°06'312.8
2017-May-25 03:00N 49°30' W 005°00'712.9
2017-May-25 02:30N 49°32' W 004°51'713.3
2017-May-25 02:00N 49°34' W 004°41'713.8
2017-May-25 01:30N 49°37' W 004°31'814.4
2017-May-25 00:59N 49°39' W 004°20'815.0
2017-May-25 00:28N 49°42' W 004°09'915.5
2017-May-24 23:54N 49°45' W 003°57'615.8
2017-May-24 23:30N 49°47' W 003°48'815.6
2017-May-24 23:00N 49°50' W 003°36'815.6
2017-May-24 22:30N 49°52' W 003°25'815.4
2017-May-24 22:00N 49°55' W 003°13'714.7
2017-May-24 21:30N 49°57' W 003°03'814.0
2017-May-24 20:56N 49°59' W 002°50'9512.9
2017-May-24 13:36N 50°23' W 000°28'216.0
2017-May-24 13:30N 50°24' W 000°25'815.6
2017-May-24 13:00N 50°26' W 000°13'815.3
2017-May-24 12:30N 50°28' W 000°02'714.5
2017-May-24 12:01N 50°30' E 000°09'714.8
2017-May-24 11:30N 50°32' E 000°20'814.3
2017-May-24 10:59N 50°34' E 000°32'613.6
2017-May-24 10:30N 50°37' E 000°41'1213.0
2017-May-24 09:33N 50°44' E 000°56'112.6
2017-May-24 09:27N 50°45' E 000°58'612.7
2017-May-24 08:59N 50°49' E 001°05'612.7
2017-May-24 08:29N 50°53' E 001°13'713.2
2017-May-24 07:58N 50°57' E 001°21'714.4
2017-May-24 07:30N 51°02' E 001°29'815.8
2017-May-24 07:01N 51°07' E 001°38'816.3
2017-May-24 06:31N 51°14' E 001°46'816.3
2017-May-24 06:01N 51°20' E 001°53'815.8
2017-May-24 05:31N 51°27' E 002°00'815.1
2017-May-24 05:01N 51°33' E 002°08'714.5
2017-May-24 04:30N 51°38' E 002°16'714.1
2017-May-24 03:59N 51°44' E 002°24'3212.6
2017-May-24 01:27N 52°03' E 003°05'813.0
2017-May-24 00:52N 52°04' E 003°17'713.2
2017-May-24 00:20N 52°04' E 003°28'513.3
2017-May-24 00:00N 52°03' E 003°36'612.7
2017-May-23 23:30N 52°03' E 003°46'510.6
2017-May-23 23:01N 52°03' E 003°54'3 6.4
2017-May-23 22:30N 52°02' E 003°60'3 5.5
2017-May-23 22:00N 51°60' E 004°02'611.8
2017-May-23 21:31N 51°57' E 004°10'510.7
2017-May-23 21:01N 51°54' E 004°17'1 2.8
2017-May-23 20:31N 51°53' E 004°16'0 0.2
2017-May-23 19:58N 51°53' E 004°16'0 0.0
2017-May-23 19:28N 51°53' E 004°16'0 0.0
2017-May-23 18:52N 51°53' E 004°16'0 0.0
2017-May-23 18:16N 51°53' E 004°16'0 0.0
2017-May-23 17:55N 51°53' E 004°16'0 0.0
2017-May-23 17:22N 51°53' E 004°16'0 0.0
2017-May-23 16:58N 51°53' E 004°16'0 0.0
2017-May-23 16:16N 51°53' E 004°16'0 0.0
2017-May-23 15:58N 51°53' E 004°16'0 0.0
2017-May-23 15:28N 51°53' E 004°16'0 0.0
2017-May-23 14:58N 51°53' E 004°16'0 0.0
2017-May-23 14:04N 51°53' E 004°16'0 0.0
2017-May-23 13:22N 51°53' E 004°16'0 0.0
2017-May-23 12:58N 51°53' E 004°16'0 0.0
2017-May-23 12:28N 51°53' E 004°16'0 0.0
2017-May-23 11:58N 51°53' E 004°16'0 0.0
2017-May-23 11:28N 51°53' E 004°16'0 0.0
2017-May-23 10:34N 51°53' E 004°16'0 0.0
2017-May-23 10:28N 51°53' E 004°16'0 0.0
2017-May-23 09:49N 51°53' E 004°16'0 0.0
2017-May-23 09:04N 51°53' E 004°16'0 0.0
2017-May-23 08:40N 51°53' E 004°16'0 0.0
2017-May-23 07:52N 51°53' E 004°16'0 0.0
2017-May-23 07:22N 51°53' E 004°16'0 0.0
2017-May-23 06:55N 51°53' E 004°16'0 0.0
2017-May-23 06:28N 51°53' E 004°16'0 0.0
2017-May-23 06:00N 51°53' E 004°16'1 1.8
2017-May-23 05:30N 51°53' E 004°17'1 1.2
2017-May-23 04:54N 51°53' E 004°19'0 0.0
2017-May-23 04:30N 51°53' E 004°19'0 0.0
2017-May-23 04:00N 51°53' E 004°19'0 0.0
2017-May-23 03:30N 51°53' E 004°19'0 0.0
2017-May-23 03:00N 51°53' E 004°19'0 0.0
2017-May-23 02:27N 51°53' E 004°19'0 0.0
2017-May-23 01:57N 51°53' E 004°19'0 0.0
2017-May-23 01:21N 51°53' E 004°19'0 0.0
2017-May-23 01:00N 51°53' E 004°19'0 0.0
2017-May-23 00:30N 51°53' E 004°19'0 0.0
2017-May-22 23:54N 51°53' E 004°19'0 0.0
2017-May-22 23:30N 51°53' E 004°19'0 0.0
2017-May-22 23:00N 51°53' E 004°19'0 0.0
2017-May-22 22:30N 51°53' E 004°19'0 0.0
2017-May-22 21:54N 51°53' E 004°19'0 0.0
2017-May-22 21:27N 51°53' E 004°19'0 0.0
2017-May-22 21:00N 51°53' E 004°19'0 0.0
2017-May-22 20:21N 51°53' E 004°19'0 0.0
2017-May-22 20:00N 51°53' E 004°19'0 0.0
2017-May-22 19:30N 51°53' E 004°19'0 0.0
2017-May-22 18:57N 51°53' E 004°19'0 0.0
2017-May-22 18:24N 51°53' E 004°19'0 0.0
2017-May-22 17:57N 51°53' E 004°19'0 0.0
2017-May-22 17:27N 51°53' E 004°19'0 0.0
2017-May-22 17:00N 51°53' E 004°19'0 0.0
2017-May-22 16:27N 51°53' E 004°19'0 0.0
2017-May-22 16:00N 51°53' E 004°19'0 0.0
2017-May-22 15:27N 51°53' E 004°19'0 0.0
2017-May-22 14:54N 51°53' E 004°19'0 0.0
2017-May-22 13:51N 51°53' E 004°19'0 0.0
2017-May-22 13:21N 51°53' E 004°19'0 0.0
2017-May-22 13:00N 51°53' E 004°19'0 0.0
2017-May-22 12:30N 51°53' E 004°19'0 0.0
2017-May-22 11:57N 51°53' E 004°19'0 0.0
2017-May-22 11:24N 51°53' E 004°19'0 0.0
2017-May-22 10:54N 51°53' E 004°19'0 0.0
2017-May-22 10:27N 51°53' E 004°19'0 0.0
2017-May-22 10:00N 51°53' E 004°19'0 0.0
2017-May-22 09:27N 51°53' E 004°19'0 0.0
2017-May-22 09:00N 51°53' E 004°19'0 0.0
2017-May-22 08:21N 51°53' E 004°19'0 0.0
2017-May-22 08:00N 51°53' E 004°19'0 0.0
2017-May-22 07:27N 51°53' E 004°19'0 0.0
2017-May-22 07:00N 51°53' E 004°19'0 0.0
2017-May-22 06:30N 51°53' E 004°19'0 0.0
2017-May-22 06:00N 51°53' E 004°19'0 0.0
2017-May-22 05:30N 51°53' E 004°19'0 0.0
2017-May-22 04:51N 51°53' E 004°19'0 0.0
2017-May-22 04:30N 51°53' E 004°19'0 0.0
2017-May-22 03:21N 51°53' E 004°19'0 0.0
2017-May-22 02:57N 51°53' E 004°19'0 0.0
2017-May-22 02:30N 51°53' E 004°19'0 0.0
2017-May-22 02:00N 51°53' E 004°19'0 0.0
2017-May-22 01:21N 51°53' E 004°19'0 0.0
2017-May-22 00:57N 51°53' E 004°19'0 0.0
2017-May-22 00:27N 51°53' E 004°19'0 0.0
2017-May-22 00:00N 51°53' E 004°19'0 0.0
2017-May-21 23:27N 51°53' E 004°19'0 0.0
2017-May-21 23:00N 51°53' E 004°19'0 0.0
2017-May-21 22:30N 51°53' E 004°19'0 0.0
2017-May-21 21:57N 51°53' E 004°19'0 0.0
2017-May-21 21:24N 51°53' E 004°19'0 0.0
2017-May-21 20:57N 51°53' E 004°19'0 0.0
2017-May-21 20:27N 51°53' E 004°19'0 0.0
2017-May-21 20:00N 51°53' E 004°19'0 0.0
2017-May-21 19:27N 51°53' E 004°19'0 0.0
2017-May-21 19:00N 51°53' E 004°19'0 0.0
2017-May-21 18:27N 51°53' E 004°19'0 0.0
2017-May-21 18:00N 51°53' E 004°19'0 0.0
2017-May-21 17:27N 51°53' E 004°19'0 0.0
2017-May-21 16:57N 51°53' E 004°19'0 0.0
2017-May-21 16:30N 51°53' E 004°19'0 0.0
2017-May-21 15:54N 51°53' E 004°19'0 0.0
2017-May-21 15:30N 51°53' E 004°19'0 0.0
2017-May-21 15:00N 51°53' E 004°19'0 0.0
2017-May-21 14:30N 51°53' E 004°19'0 0.0
2017-May-21 13:27N 51°53' E 004°19'0 0.0
2017-May-21 12:57N 51°53' E 004°19'0 0.0
2017-May-21 12:30N 51°53' E 004°19'0 0.0
2017-May-21 12:00N 51°53' E 004°19'0 0.0
2017-May-21 11:27N 51°53' E 004°19'0 0.0
2017-May-21 10:57N 51°53' E 004°19'0 0.0
2017-May-21 10:27N 51°53' E 004°19'0 0.0
2017-May-21 10:00N 51°53' E 004°19'0 0.0
2017-May-21 09:30N 51°53' E 004°19'0 0.0
2017-May-21 08:57N 51°53' E 004°19'0 0.0
2017-May-21 08:30N 51°53' E 004°19'0 0.0
2017-May-21 07:48N 51°53' E 004°19'0 0.0
2017-May-21 07:27N 51°53' E 004°19'0 0.0
2017-May-21 07:00N 51°53' E 004°19'0 0.0
2017-May-21 06:30N 51°53' E 004°19'0 0.0
2017-May-21 05:57N 51°53' E 004°19'0 0.0
2017-May-21 05:27N 51°53' E 004°19'0 0.0
2017-May-21 04:54N 51°53' E 004°19'0 0.0
2017-May-21 04:24N 51°53' E 004°19'0 0.0
2017-May-21 03:54N 51°53' E 004°19'0 0.0
2017-May-21 03:30N 51°53' E 004°19'0 0.0
2017-May-21 03:00N 51°53' E 004°19'0 0.0
2017-May-21 02:30N 51°53' E 004°19'0 0.0
2017-May-21 01:51N 51°53' E 004°19'0 0.0
2017-May-21 01:15N 51°53' E 004°19'0 0.0
2017-May-21 01:00N 51°53' E 004°19'0 0.0
2017-May-21 00:30N 51°53' E 004°19'0 0.0
2017-May-21 00:00N 51°53' E 004°19'0 0.0
2017-May-20 23:30N 51°53' E 004°19'0 0.0
2017-May-20 22:57N 51°53' E 004°19'0 0.0
2017-May-20 22:31N 51°53' E 004°19'0 0.7
2017-May-20 22:01N 51°54' E 004°18'3 5.0
2017-May-20 21:31N 51°55' E 004°15'510.9
2017-May-20 21:01N 51°58' E 004°08'713.6
2017-May-20 20:30N 52°00' E 003°57'714.1
2017-May-20 20:00N 52°00' E 003°46'612.9
2017-May-20 19:30N 51°58' E 003°36'814.1
2017-May-20 18:56N 51°56' E 003°23'1113.3
2017-May-20 18:05N 51°53' E 003°06'113.6
2017-May-20 18:00N 51°53' E 003°04'31 1.8
2017-May-20 01:19N 51°36' E 002°23'5 8.5
2017-May-20 00:43N 51°32' E 002°17'3 9.0
2017-May-20 00:25N 51°30' E 002°15'511.0
2017-May-20 00:01N 51°26' E 002°12'611.2
2017-May-19 23:30N 51°21' E 002°16'612.0
2017-May-19 23:00N 51°22' E 002°25'612.1
2017-May-19 22:30N 51°23' E 002°35'611.8
2017-May-19 21:59N 51°22' E 002°45'611.8
2017-May-19 21:30N 51°23' E 002°54'713.5
2017-May-19 21:00N 51°24' E 003°04'713.8
2017-May-19 20:31N 51°25' E 003°15'714.0
2017-May-19 20:00N 51°25' E 003°27'612.5
2017-May-19 19:30N 51°26' E 003°36'5 9.0
2017-May-19 19:00N 51°24' E 003°43'611.8
2017-May-19 18:30N 51°21' E 003°51'611.2
2017-May-19 18:01N 51°24' E 003°57'3 6.2
2017-May-19 17:30N 51°24' E 004°02'510.2
2017-May-19 17:00N 51°24' E 004°10'510.1
2017-May-19 16:30N 51°20' E 004°16'3 7.0
2017-May-19 16:00N 51°17' E 004°15'0 0.0
2017-May-19 15:30N 51°17' E 004°15'0 0.4
2017-May-19 15:00N 51°17' E 004°15'1 0.4
2017-May-19 11:58N 51°16' E 004°15'0 0.0
2017-May-18 15:46N 51°16' E 004°15'0 0.0
2017-May-18 15:28N 51°16' E 004°15'0 0.0
2017-May-18 14:58N 51°16' E 004°15'0 0.0
2017-May-18 11:55N 51°16' E 004°15'0 0.0
2017-May-18 09:19N 51°16' E 004°15'0 0.0
2017-May-18 08:55N 51°16' E 004°15'0 0.0
2017-May-18 05:58N 51°16' E 004°15'0 0.0
2017-May-18 02:58N 51°16' E 004°15'0 0.1
2017-May-18 02:30N 51°16' E 004°15'0 0.0
2017-May-16 01:46N 51°16' E 004°15'0 1.3
2017-May-16 01:30N 51°16' E 004°16'1 1.0
2017-May-16 01:00N 51°16' E 004°17'0 0.0
2017-May-16 00:30N 51°16' E 004°17'0 0.9
2017-May-16 00:00N 51°16' E 004°17'1 1.6
2017-May-15 23:30N 51°16' E 004°19'3 5.4
2017-May-15 23:00N 51°19' E 004°16'2 4.2
2017-May-15 22:31N 51°21' E 004°17'0 0.1
2017-May-15 21:27N 51°21' E 004°17'0 0.2
2017-May-15 20:59N 51°21' E 004°17'0 1.0
2017-May-15 20:30N 51°20' E 004°18'1 1.9
2017-May-15 20:01N 51°19' E 004°19'2 4.9
2017-May-15 19:30N 51°17' E 004°20'3 4.3
2017-May-15 18:55N 51°15' E 004°21'0 0.1
2017-May-15 18:28N 51°15' E 004°21'0 0.0
2017-May-15 17:58N 51°15' E 004°21'0 0.0
2017-May-15 17:22N 51°15' E 004°21'0 0.0
2017-May-15 16:58N 51°15' E 004°21'0 0.0
2017-May-15 16:28N 51°15' E 004°21'0 0.0
2017-May-15 15:58N 51°15' E 004°21'0 0.0
2017-May-15 15:25N 51°15' E 004°21'0 0.0
2017-May-15 14:58N 51°15' E 004°21'0 0.0
2017-May-15 13:58N 51°15' E 004°21'0 0.0
2017-May-15 13:28N 51°15' E 004°21'0 0.0
2017-May-15 12:55N 51°15' E 004°21'0 0.0
2017-May-15 12:28N 51°15' E 004°21'0 0.0
2017-May-15 11:58N 51°15' E 004°21'0 0.0
2017-May-15 11:28N 51°15' E 004°21'0 0.0
2017-May-15 10:58N 51°15' E 004°21'0 0.0
2017-May-15 10:28N 51°15' E 004°21'0 0.0
2017-May-15 09:58N 51°15' E 004°21'0 0.0
2017-May-15 09:28N 51°15' E 004°21'0 0.0
2017-May-15 08:58N 51°15' E 004°21'0 0.0
2017-May-15 08:28N 51°15' E 004°21'0 0.0
2017-May-15 07:58N 51°15' E 004°21'0 0.0
2017-May-15 07:28N 51°15' E 004°21'0 0.0
2017-May-15 06:55N 51°15' E 004°21'0 0.0
2017-May-15 06:13N 51°15' E 004°21'0 0.0
2017-May-15 05:58N 51°15' E 004°21'0 0.0
2017-May-15 05:28N 51°15' E 004°21'  
Track history (hours):
 
Tides and Currents Weather Stations Pressure Air Temp Water Temp Dewpoint Dewpoint Depression Visibility Wind Speed Wind Dir Waves Ship Positions

Stolt Spray

Last reported at 2017-May-25 04:56 UTC. Time now 2017-May-28 12:34 UTC.
Position N 49°24' W 005°38'.

Length 163 m; draft 9.1 m.

Type: Ship (hazmat cat B). MMSI: 319591000.

Date/timePositionNaut miles runAvg speedWind from/ knotsBaromVisibWave heightAir tempDewpointWater temp
2017-May-25 04:56N 49°24' W 005°38'1213.9
2017-May-25 04:02N 49°27' W 005°20'012.9
2017-May-25 04:01N 49°27' W 005°19'912.6
2017-May-25 03:17N 49°29' W 005°06'312.8
2017-May-25 03:00N 49°30' W 005°00'712.9
2017-May-25 02:30N 49°32' W 004°51'713.3
2017-May-25 02:00N 49°34' W 004°41'713.8
2017-May-25 01:30N 49°37' W 004°31'814.4
2017-May-25 00:59N 49°39' W 004°20'815.0
2017-May-25 00:28N 49°42' W 004°09'915.5
2017-May-24 23:54N 49°45' W 003°57'615.8
2017-May-24 23:30N 49°47' W 003°48'815.6
2017-May-24 23:00N 49°50' W 003°36'815.6
2017-May-24 22:30N 49°52' W 003°25'815.4
2017-May-24 22:00N 49°55' W 003°13'714.7
2017-May-24 21:30N 49°57' W 003°03'814.0
2017-May-24 20:56N 49°59' W 002°50'9512.9
2017-May-24 13:36N 50°23' W 000°28'216.0
2017-May-24 13:30N 50°24' W 000°25'815.6
2017-May-24 13:00N 50°26' W 000°13'815.3
2017-May-24 12:30N 50°28' W 000°02'714.5
2017-May-24 12:01N 50°30' E 000°09'714.8
2017-May-24 11:30N 50°32' E 000°20'814.3
2017-May-24 10:59N 50°34' E 000°32'613.6
2017-May-24 10:30N 50°37' E 000°41'1213.0
2017-May-24 09:33N 50°44' E 000°56'112.6
2017-May-24 09:27N 50°45' E 000°58'612.7
2017-May-24 08:59N 50°49' E 001°05'612.7
2017-May-24 08:29N 50°53' E 001°13'713.2
2017-May-24 07:58N 50°57' E 001°21'714.4
2017-May-24 07:30N 51°02' E 001°29'815.8
2017-May-24 07:01N 51°07' E 001°38'816.3
2017-May-24 06:31N 51°14' E 001°46'816.3
2017-May-24 06:01N 51°20' E 001°53'815.8
2017-May-24 05:31N 51°27' E 002°00'815.1
2017-May-24 05:01N 51°33' E 002°08'714.5
2017-May-24 04:30N 51°38' E 002°16'714.1
2017-May-24 03:59N 51°44' E 002°24'3212.6
2017-May-24 01:27N 52°03' E 003°05'813.0
2017-May-24 00:52N 52°04' E 003°17'713.2
2017-May-24 00:20N 52°04' E 003°28'513.3
2017-May-24 00:00N 52°03' E 003°36'612.7
2017-May-23 23:30N 52°03' E 003°46'510.6
2017-May-23 23:01N 52°03' E 003°54'3 6.4
2017-May-23 22:30N 52°02' E 003°60'3 5.5
2017-May-23 22:00N 51°60' E 004°02'611.8
2017-May-23 21:31N 51°57' E 004°10'510.7
2017-May-23 21:01N 51°54' E 004°17'1 2.8
2017-May-23 20:31N 51°53' E 004°16'0 0.2
2017-May-23 19:58N 51°53' E 004°16'0 0.0
2017-May-23 19:28N 51°53' E 004°16'0 0.0
2017-May-23 18:52N 51°53' E 004°16'0 0.0
2017-May-23 18:16N 51°53' E 004°16'0 0.0
2017-May-23 17:55N 51°53' E 004°16'0 0.0
2017-May-23 17:22N 51°53' E 004°16'0 0.0
2017-May-23 16:58N 51°53' E 004°16'0 0.0
2017-May-23 16:16N 51°53' E 004°16'0 0.0
2017-May-23 15:58N 51°53' E 004°16'0 0.0
2017-May-23 15:28N 51°53' E 004°16'0 0.0
2017-May-23 14:58N 51°53' E 004°16'0 0.0
2017-May-23 14:04N 51°53' E 004°16'0 0.0
2017-May-23 13:22N 51°53' E 004°16'0 0.0
2017-May-23 12:58N 51°53' E 004°16'0 0.0
2017-May-23 12:28N 51°53' E 004°16'0 0.0
2017-May-23 11:58N 51°53' E 004°16'0 0.0
2017-May-23 11:28N 51°53' E 004°16'0 0.0
2017-May-23 10:34N 51°53' E 004°16'0 0.0
2017-May-23 10:28N 51°53' E 004°16'0 0.0
2017-May-23 09:49N 51°53' E 004°16'0 0.0
2017-May-23 09:04N 51°53' E 004°16'0 0.0
2017-May-23 08:40N 51°53' E 004°16'0 0.0
2017-May-23 07:52N 51°53' E 004°16'0 0.0
2017-May-23 07:22N 51°53' E 004°16'0 0.0
2017-May-23 06:55N 51°53' E 004°16'0 0.0
2017-May-23 06:28N 51°53' E 004°16'0 0.0
2017-May-23 06:00N 51°53' E 004°16'1 1.8
2017-May-23 05:30N 51°53' E 004°17'1 1.2
2017-May-23 04:54N 51°53' E 004°19'0 0.0
2017-May-23 04:30N 51°53' E 004°19'0 0.0
2017-May-23 04:00N 51°53' E 004°19'0 0.0
2017-May-23 03:30N 51°53' E 004°19'0 0.0
2017-May-23 03:00N 51°53' E 004°19'0 0.0
2017-May-23 02:27N 51°53' E 004°19'0 0.0
2017-May-23 01:57N 51°53' E 004°19'0 0.0
2017-May-23 01:21N 51°53' E 004°19'0 0.0
2017-May-23 01:00N 51°53' E 004°19'0 0.0
2017-May-23 00:30N 51°53' E 004°19'0 0.0
2017-May-22 23:54N 51°53' E 004°19'0 0.0
2017-May-22 23:30N 51°53' E 004°19'0 0.0
2017-May-22 23:00N 51°53' E 004°19'0 0.0
2017-May-22 22:30N 51°53' E 004°19'0 0.0
2017-May-22 21:54N 51°53' E 004°19'0 0.0
2017-May-22 21:27N 51°53' E 004°19'0 0.0
2017-May-22 21:00N 51°53' E 004°19'0 0.0
2017-May-22 20:21N 51°53' E 004°19'0 0.0
2017-May-22 20:00N 51°53' E 004°19'0 0.0
2017-May-22 19:30N 51°53' E 004°19'0 0.0
2017-May-22 18:57N 51°53' E 004°19'0 0.0
2017-May-22 18:24N 51°53' E 004°19'0 0.0
2017-May-22 17:57N 51°53' E 004°19'0 0.0
2017-May-22 17:27N 51°53' E 004°19'0 0.0
2017-May-22 17:00N 51°53' E 004°19'0 0.0
2017-May-22 16:27N 51°53' E 004°19'0 0.0
2017-May-22 16:00N 51°53' E 004°19'0 0.0
2017-May-22 15:27N 51°53' E 004°19'0 0.0
2017-May-22 14:54N 51°53' E 004°19'0 0.0
2017-May-22 13:51N 51°53' E 004°19'0 0.0
2017-May-22 13:21N 51°53' E 004°19'0 0.0
2017-May-22 13:00N 51°53' E 004°19'0 0.0
2017-May-22 12:30N 51°53' E 004°19'0 0.0
2017-May-22 11:57N 51°53' E 004°19'0 0.0
2017-May-22 11:24N 51°53' E 004°19'0 0.0
2017-May-22 10:54N 51°53' E 004°19'0 0.0
2017-May-22 10:27N 51°53' E 004°19'0 0.0
2017-May-22 10:00N 51°53' E 004°19'0 0.0
2017-May-22 09:27N 51°53' E 004°19'0 0.0
2017-May-22 09:00N 51°53' E 004°19'0 0.0
2017-May-22 08:21N 51°53' E 004°19'0 0.0
2017-May-22 08:00N 51°53' E 004°19'0 0.0
2017-May-22 07:27N 51°53' E 004°19'0 0.0
2017-May-22 07:00N 51°53' E 004°19'0 0.0
2017-May-22 06:30N 51°53' E 004°19'0 0.0
2017-May-22 06:00N 51°53' E 004°19'0 0.0
2017-May-22 05:30N 51°53' E 004°19'0 0.0
2017-May-22 04:51N 51°53' E 004°19'0 0.0
2017-May-22 04:30N 51°53' E 004°19'0 0.0
2017-May-22 03:21N 51°53' E 004°19'0 0.0
2017-May-22 02:57N 51°53' E 004°19'0 0.0
2017-May-22 02:30N 51°53' E 004°19'0 0.0
2017-May-22 02:00N 51°53' E 004°19'0 0.0
2017-May-22 01:21N 51°53' E 004°19'0 0.0
2017-May-22 00:57N 51°53' E 004°19'0 0.0
2017-May-22 00:27N 51°53' E 004°19'0 0.0
2017-May-22 00:00N 51°53' E 004°19'0 0.0
2017-May-21 23:27N 51°53' E 004°19'0 0.0
2017-May-21 23:00N 51°53' E 004°19'0 0.0
2017-May-21 22:30N 51°53' E 004°19'0 0.0
2017-May-21 21:57N 51°53' E 004°19'0 0.0
2017-May-21 21:24N 51°53' E 004°19'0 0.0
2017-May-21 20:57N 51°53' E 004°19'0 0.0
2017-May-21 20:27N 51°53' E 004°19'0 0.0
2017-May-21 20:00N 51°53' E 004°19'0 0.0
2017-May-21 19:27N 51°53' E 004°19'0 0.0
2017-May-21 19:00N 51°53' E 004°19'0 0.0
2017-May-21 18:27N 51°53' E 004°19'0 0.0
2017-May-21 18:00N 51°53' E 004°19'0 0.0
2017-May-21 17:27N 51°53' E 004°19'0 0.0
2017-May-21 16:57N 51°53' E 004°19'0 0.0
2017-May-21 16:30N 51°53' E 004°19'0 0.0
2017-May-21 15:54N 51°53' E 004°19'0 0.0
2017-May-21 15:30N 51°53' E 004°19'0 0.0
2017-May-21 15:00N 51°53' E 004°19'0 0.0
2017-May-21 14:30N 51°53' E 004°19'0 0.0
2017-May-21 13:27N 51°53' E 004°19'0 0.0
2017-May-21 12:57N 51°53' E 004°19'0 0.0
2017-May-21 12:30N 51°53' E 004°19'0 0.0
2017-May-21 12:00N 51°53' E 004°19'0 0.0
2017-May-21 11:27N 51°53' E 004°19'0 0.0
2017-May-21 10:57N 51°53' E 004°19'0 0.0
2017-May-21 10:27N 51°53' E 004°19'0 0.0
2017-May-21 10:00N 51°53' E 004°19'0 0.0
2017-May-21 09:30N 51°53' E 004°19'0 0.0
2017-May-21 08:57N 51°53' E 004°19'0 0.0
2017-May-21 08:30N 51°53' E 004°19'0 0.0
2017-May-21 07:48N 51°53' E 004°19'0 0.0
2017-May-21 07:27N 51°53' E 004°19'0 0.0
2017-May-21 07:00N 51°53' E 004°19'0 0.0
2017-May-21 06:30N 51°53' E 004°19'0 0.0
2017-May-21 05:57N 51°53' E 004°19'0 0.0
2017-May-21 05:27N 51°53' E 004°19'0 0.0
2017-May-21 04:54N 51°53' E 004°19'0 0.0
2017-May-21 04:24N 51°53' E 004°19'0 0.0
2017-May-21 03:54N 51°53' E 004°19'0 0.0
2017-May-21 03:30N 51°53' E 004°19'0 0.0
2017-May-21 03:00N 51°53' E 004°19'0 0.0
2017-May-21 02:30N 51°53' E 004°19'0 0.0
2017-May-21 01:51N 51°53' E 004°19'0 0.0
2017-May-21 01:15N 51°53' E 004°19'0 0.0
2017-May-21 01:00N 51°53' E 004°19'0 0.0
2017-May-21 00:30N 51°53' E 004°19'0 0.0
2017-May-21 00:00N 51°53' E 004°19'0 0.0
2017-May-20 23:30N 51°53' E 004°19'0 0.0
2017-May-20 22:57N 51°53' E 004°19'0 0.0
2017-May-20 22:31N 51°53' E 004°19'0 0.7
2017-May-20 22:01N 51°54' E 004°18'3 5.0
2017-May-20 21:31N 51°55' E 004°15'510.9
2017-May-20 21:01N 51°58' E 004°08'713.6
2017-May-20 20:30N 52°00' E 003°57'714.1
2017-May-20 20:00N 52°00' E 003°46'612.9
2017-May-20 19:30N 51°58' E 003°36'814.1
2017-May-20 18:56N 51°56' E 003°23'1113.3
2017-May-20 18:05N 51°53' E 003°06'113.6
2017-May-20 18:00N 51°53' E 003°04'31 1.8
2017-May-20 01:19N 51°36' E 002°23'5 8.5
2017-May-20 00:43N 51°32' E 002°17'3 9.0
2017-May-20 00:25N 51°30' E 002°15'511.0
2017-May-20 00:01N 51°26' E 002°12'611.2
2017-May-19 23:30N 51°21' E 002°16'612.0
2017-May-19 23:00N 51°22' E 002°25'612.1
2017-May-19 22:30N 51°23' E 002°35'611.8
2017-May-19 21:59N 51°22' E 002°45'611.8
2017-May-19 21:30N 51°23' E 002°54'713.5
2017-May-19 21:00N 51°24' E 003°04'713.8
2017-May-19 20:31N 51°25' E 003°15'714.0
2017-May-19 20:00N 51°25' E 003°27'612.5
2017-May-19 19:30N 51°26' E 003°36'5 9.0
2017-May-19 19:00N 51°24' E 003°43'611.8
2017-May-19 18:30N 51°21' E 003°51'611.2
2017-May-19 18:01N 51°24' E 003°57'3 6.2
2017-May-19 17:30N 51°24' E 004°02'510.2
2017-May-19 17:00N 51°24' E 004°10'510.1
2017-May-19 16:30N 51°20' E 004°16'3 7.0
2017-May-19 16:00N 51°17' E 004°15'0 0.0
2017-May-19 15:30N 51°17' E 004°15'0 0.4
2017-May-19 15:00N 51°17' E 004°15'1 0.4
2017-May-19 11:58N 51°16' E 004°15'0 0.0
2017-May-18 15:46N 51°16' E 004°15'0 0.0
2017-May-18 15:28N 51°16' E 004°15'0 0.0
2017-May-18 14:58N 51°16' E 004°15'0 0.0
2017-May-18 11:55N 51°16' E 004°15'0 0.0
2017-May-18 09:19N 51°16' E 004°15'0 0.0
2017-May-18 08:55N 51°16' E 004°15'0 0.0
2017-May-18 05:58N 51°16' E 004°15'0 0.0
2017-May-18 02:58N 51°16' E 004°15'0 0.1
2017-May-18 02:30N 51°16' E 004°15'0 0.0
2017-May-16 01:46N 51°16' E 004°15'0 1.3
2017-May-16 01:30N 51°16' E 004°16'1 1.0
2017-May-16 01:00N 51°16' E 004°17'0 0.0
2017-May-16 00:30N 51°16' E 004°17'0 0.9
2017-May-16 00:00N 51°16' E 004°17'1 1.6
2017-May-15 23:30N 51°16' E 004°19'3 5.4
2017-May-15 23:00N 51°19' E 004°16'2 4.2
2017-May-15 22:31N 51°21' E 004°17'0 0.1
2017-May-15 21:27N 51°21' E 004°17'0 0.2
2017-May-15 20:59N 51°21' E 004°17'0 1.0
2017-May-15 20:30N 51°20' E 004°18'1 1.9
2017-May-15 20:01N 51°19' E 004°19'2 4.9
2017-May-15 19:30N 51°17' E 004°20'3 4.3
2017-May-15 18:55N 51°15' E 004°21'0 0.1
2017-May-15 18:28N 51°15' E 004°21'0 0.0
2017-May-15 17:58N 51°15' E 004°21'0 0.0
2017-May-15 17:22N 51°15' E 004°21'0 0.0
2017-May-15 16:58N 51°15' E 004°21'0 0.0
2017-May-15 16:28N 51°15' E 004°21'0 0.0
2017-May-15 15:58N 51°15' E 004°21'0 0.0
2017-May-15 15:25N 51°15' E 004°21'0 0.0
2017-May-15 14:58N 51°15' E 004°21'0 0.0
2017-May-15 13:58N 51°15' E 004°21'0 0.0
2017-May-15 13:28N 51°15' E 004°21'0 0.0
2017-May-15 12:55N 51°15' E 004°21'0 0.0
2017-May-15 12:28N 51°15' E 004°21'0 0.0
2017-May-15 11:58N 51°15' E 004°21'0 0.0
2017-May-15 11:28N 51°15' E 004°21'0 0.0
2017-May-15 10:58N 51°15' E 004°21'0 0.0
2017-May-15 10:28N 51°15' E 004°21'0 0.0
2017-May-15 09:58N 51°15' E 004°21'0 0.0
2017-May-15 09:28N 51°15' E 004°21'0 0.0
2017-May-15 08:58N 51°15' E 004°21'0 0.0
2017-May-15 08:28N 51°15' E 004°21'0 0.0
2017-May-15 07:58N 51°15' E 004°21'0 0.0
2017-May-15 07:28N 51°15' E 004°21'0 0.0
2017-May-15 06:55N 51°15' E 004°21'0 0.0
2017-May-15 06:13N 51°15' E 004°21'0 0.0
2017-May-15 05:58N 51°15' E 004°21'0 0.0
2017-May-15 05:28N 51°15' E 004°21'  

Dump ship's entire track history